Time;durP1;ratioP1;P1;durP2;ratioP2;P2;SDS_P1;SDS_P2;PMS_P1;PMS_P2;Temp;Humidity;BMP_temperature;BMP_pressure;BME280_temperature;BME280_humidity;BME280_pressure;Samples;Min_cycle;Max_cycle;Signal;HPM_P1;HPM_P2
2021/04/04 00:02:26;;;;;;;1.38;0.85;;;30.20;60.60;;;;;;5073852;28;20025;-68
2021/04/04 00:04:54;;;;;;;1.30;1.00;;;29.80;60.50;;;;;;5063978;28;20093;-70
2021/04/04 00:07:21;;;;;;;1.42;0.70;;;29.80;60.30;;;;;;5067603;28;20138;-67
2021/04/04 00:09:49;;;;;;;1.13;0.85;;;30.00;59.60;;;;;;5069869;28;20077;-72
2021/04/04 00:12:16;;;;;;;3.67;1.17;;;29.50;60.70;;;;;;5070663;28;20378;-69
2021/04/04 00:14:44;;;;;;;1.70;0.68;;;29.10;62.20;;;;;;5067136;28;20020;-69
2021/04/04 00:17:11;;;;;;;1.10;0.80;;;29.50;63.10;;;;;;5068511;28;20025;-73
2021/04/04 00:19:38;;;;;;;1.55;0.90;;;30.20;61.00;;;;;;5061185;28;20025;-70
2021/04/04 00:22:06;;;;;;;1.85;0.93;;;30.70;60.80;;;;;;5068836;28;20110;-74
2021/04/04 00:24:33;;;;;;;2.50;0.98;;;31.10;59.20;;;;;;5071145;28;20526;-69
2021/04/04 00:27:01;;;;;;;2.15;1.75;;;30.90;58.90;;;;;;5059616;28;20044;-68
2021/04/04 00:29:29;;;;;;;2.92;1.75;;;30.30;59.80;;;;;;5074140;28;20100;-69
2021/04/04 00:31:56;;;;;;;1.38;1.10;;;30.90;60.90;;;;;;5056626;28;20629;-72
2021/04/04 00:34:25;;;;;;;2.22;1.63;;;31.60;59.60;;;;;;5069384;28;20024;-73
2021/04/04 00:36:52;;;;;;;3.33;2.38;;;31.40;57.30;;;;;;5070834;28;20150;-69
2021/04/04 00:39:21;;;;;;;2.30;1.67;;;31.10;60.20;;;;;;5075716;28;20040;-73
2021/04/04 00:41:48;;;;;;;2.85;2.22;;;31.30;58.10;;;;;;5070670;28;20029;-73
2021/04/04 00:44:16;;;;;;;6.25;3.08;;;30.70;58.90;;;;;;5078229;28;20040;-72
2021/04/04 00:46:44;;;;;;;2.95;2.65;;;30.80;60.40;;;;;;5077989;28;20024;-72
2021/04/04 00:49:12;;;;;;;7.75;4.50;;;30.80;58.90;;;;;;5070967;28;20052;-74
2021/04/04 00:51:39;;;;;;;5.65;5.15;;;30.20;60.50;;;;;;5071329;28;20144;-73
2021/04/04 00:54:07;;;;;;;8.02;5.30;;;29.90;61.90;;;;;;5077269;28;20023;-70
2021/04/04 00:56:36;;;;;;;7.47;6.78;;;29.80;62.50;;;;;;5074536;28;20089;-74
2021/04/04 00:59:04;;;;;;;8.50;7.15;;;29.60;63.40;;;;;;5055611;28;20051;-73
2021/04/04 01:01:34;;;;;;;16.77;7.47;;;29.50;65.30;;;;;;5074806;28;20428;-70
2021/04/04 01:04:02;;;;;;;6.25;5.65;;;29.70;63.80;;;;;;5067721;28;21041;-74
2021/04/04 01:06:29;;;;;;;6.63;6.03;;;30.30;62.80;;;;;;5064935;28;20512;-74
2021/04/04 01:08:57;;;;;;;6.70;5.45;;;30.80;59.40;;;;;;5065378;28;20029;-73
2021/04/04 01:11:42;;;;;;;7.35;6.65;;;30.40;63.40;;;;;;5066101;28;20044;-74
2021/04/04 01:14:31;;;;;;;8.27;7.03;;;30.40;61.10;;;;;;5071946;28;20048;-70
2021/04/04 01:17:02;;;;;;;7.70;6.68;;;30.10;62.20;;;;;;5067678;28;20311;-73
2021/04/04 01:20:07;;;;;;;8.20;6.10;;;30.00;61.40;;;;;;5062051;28;20032;-73
2021/04/04 01:22:52;;;;;;;6.57;5.55;;;30.20;60.20;;;;;;5071155;28;20031;-69
2021/04/04 01:25:50;;;;;;;7.28;6.57;;;29.80;61.60;;;;;;5064537;28;20028;-69
2021/04/04 01:28:30;;;;;;;6.55;5.32;;;29.80;61.60;;;;;;5071704;28;20112;-69
2021/04/04 01:30:58;;;;;;;5.88;5.22;;;30.30;61.20;;;;;;5063183;28;20456;-69
2021/04/04 01:33:28;;;;;;;6.72;5.65;;;29.50;62.50;;;;;;5071989;28;20028;-69
2021/04/04 01:35:59;;;;;;;5.80;5.22;;;29.10;63.50;;;;;;5067443;28;21153;-69
2021/04/04 01:38:31;;;;;;;6.07;5.53;;;29.10;64.40;;;;;;5072276;28;20028;-70
2021/04/04 01:41:18;;;;;;;5.28;4.85;;;29.50;63.90;;;;;;5061822;28;20064;-69
2021/04/04 01:43:49;;;;;;;4.93;4.40;;;29.90;61.40;;;;;;5077346;28;20024;-70
2021/04/04 01:46:19;;;;;;;5.05;4.55;;;30.10;61.60;;;;;;5080180;28;20040;-69
2021/04/04 01:48:48;;;;;;;5.40;4.40;;;30.40;61.30;;;;;;5072234;28;20438;-68
2021/04/04 01:51:15;;;;;;;6.55;4.30;;;30.30;59.40;;;;;;5073112;28;20048;-69
2021/04/04 01:53:44;;;;;;;4.78;4.07;;;30.40;60.90;;;;;;5070496;28;20020;-69
2021/04/04 01:56:11;;;;;;;4.65;4.25;;;30.40;59.90;;;;;;5063104;28;20507;-69
2021/04/04 01:58:40;;;;;;;4.63;3.88;;;30.20;60.30;;;;;;5066550;28;20052;-69
2021/04/04 02:01:08;;;;;;;4.78;3.65;;;30.60;59.20;;;;;;5070120;28;20037;-70
2021/04/04 02:03:36;;;;;;;4.88;3.65;;;31.10;57.20;;;;;;5051142;28;20093;-70
2021/04/04 02:06:05;;;;;;;4.18;3.13;;;31.30;57.70;;;;;;5067590;28;20033;-69
2021/04/04 02:08:35;;;;;;;3.65;3.13;;;31.50;57.90;;;;;;5069295;28;20013;-70
2021/04/04 02:11:03;;;;;;;4.20;2.92;;;31.70;56.20;;;;;;5063546;28;20041;-70
2021/04/04 02:13:33;;;;;;;5.47;4.45;;;31.90;56.50;;;;;;5068351;28;20028;-69
2021/04/04 02:16:03;;;;;;;3.00;2.80;;;32.40;54.10;;;;;;5066747;28;20032;-69
2021/04/04 02:18:31;;;;;;;3.97;2.65;;;32.00;54.00;;;;;;5070321;28;20161;-69
2021/04/04 02:20:59;;;;;;;2.85;2.55;;;32.20;53.90;;;;;;5070680;28;20016;-71
2021/04/04 02:23:28;;;;;;;2.38;2.17;;;31.90;54.80;;;;;;5070923;28;20108;-70
2021/04/04 02:25:59;;;;;;;3.03;2.72;;;31.90;53.40;;;;;;5069097;28;20023;-69
2021/04/04 02:28:29;;;;;;;3.00;2.80;;;31.80;54.30;;;;;;5070266;28;20468;-69
2021/04/04 02:30:57;;;;;;;4.72;2.60;;;31.70;55.70;;;;;;5067734;28;20549;-69
2021/04/04 02:33:48;;;;;;;2.92;2.03;;;31.70;54.40;;;;;;5075489;28;20028;-69
2021/04/04 02:36:18;;;;;;;2.15;1.67;;;31.90;53.50;;;;;;5073708;28;20484;-70
2021/04/04 02:38:51;;;;;;;4.55;2.00;;;31.90;54.20;;;;;;5079430;28;20085;-69
2021/04/04 02:41:19;;;;;;;3.35;2.47;;;32.10;51.70;;;;;;5075985;28;20548;-69
2021/04/04 02:43:50;;;;;;;2.25;2.05;;;32.00;52.00;;;;;;5080015;28;20490;-69
2021/04/04 02:46:22;;;;;;;4.85;2.40;;;31.90;52.60;;;;;;5077313;28;20020;-70
2021/04/04 02:48:58;;;;;;;2.50;2.30;;;31.70;52.50;;;;;;5059124;28;20044;-70
2021/04/04 02:51:36;;;;;;;3.63;2.47;;;32.10;54.40;;;;;;5069028;28;20128;-70
2021/04/04 02:54:05;;;;;;;2.10;1.83;;;32.40;50.30;;;;;;5067879;28;20119;-68
2021/04/04 02:56:47;;;;;;;3.22;1.80;;;33.10;50.20;;;;;;5082389;28;20024;-69
2021/04/04 02:59:23;;;;;;;2.55;1.92;;;32.90;48.10;;;;;;5068134;28;20021;-69
2021/04/04 03:01:52;;;;;;;3.65;2.10;;;33.00;51.00;;;;;;5078020;28;20122;-69
2021/04/04 03:04:24;;;;;;;3.38;1.92;;;33.00;51.00;;;;;;5075740;28;20031;-70
2021/04/04 03:06:53;;;;;;;6.03;5.47;;;33.10;50.90;;;;;;5073219;28;20025;-71
2021/04/04 03:09:21;;;;;;;2.38;1.98;;;33.20;48.40;;;;;;5071835;28;20217;-69
2021/04/04 03:11:49;;;;;;;3.78;1.88;;;33.20;49.10;;;;;;5074892;28;20040;-71
2021/04/04 03:14:17;;;;;;;2.15;1.42;;;33.40;47.10;;;;;;5073897;28;20033;-70
2021/04/04 03:16:46;;;;;;;2.30;1.77;;;33.70;48.70;;;;;;5081221;28;20136;-70
2021/04/04 03:19:15;;;;;;;1.55;1.30;;;33.60;46.70;;;;;;5072525;28;20475;-70
2021/04/04 03:21:43;;;;;;;2.58;1.20;;;33.50;50.30;;;;;;5080120;28;20214;-71
2021/04/04 03:24:12;;;;;;;3.40;1.90;;;33.90;46.00;;;;;;5072752;28;20028;-71
2021/04/04 03:26:40;;;;;;;4.22;1.52;;;34.20;46.80;;;;;;5077346;28;20425;-69
2021/04/04 03:29:10;;;;;;;1.25;0.98;;;34.20;45.10;;;;;;5077337;28;20032;-72
2021/04/04 03:31:39;;;;;;;5.35;1.35;;;34.10;46.30;;;;;;5069937;28;20036;-69
2021/04/04 03:34:07;;;;;;;1.63;1.10;;;33.90;46.20;;;;;;5076689;28;20017;-70
2021/04/04 03:36:35;;;;;;;1.60;1.10;;;33.80;45.20;;;;;;5076605;28;20042;-70
2021/04/04 03:39:04;;;;;;;9.70;2.50;;;34.00;49.50;;;;;;5071987;28;20577;-71
2021/04/04 03:41:33;;;;;;;3.53;1.45;;;34.10;45.90;;;;;;5077226;28;20036;-69
2021/04/04 03:44:01;;;;;;;1.90;0.95;;;34.00;44.90;;;;;;5071271;28;20394;-71
2021/04/04 03:46:31;;;;;;;3.70;1.17;;;34.00;44.40;;;;;;5078076;28;20432;-69
2021/04/04 03:49:00;;;;;;;2.28;0.80;;;34.10;44.70;;;;;;5068020;28;20123;-70
2021/04/04 03:51:30;;;;;;;2.40;0.90;;;34.20;45.10;;;;;;5080861;28;20036;-70
2021/04/04 03:53:59;;;;;;;2.33;1.33;;;34.40;42.80;;;;;;5074757;28;20082;-69
2021/04/04 03:56:30;;;;;;;2.30;1.10;;;34.30;43.30;;;;;;5071514;28;21094;-69
2021/04/04 03:59:02;;;;;;;5.90;2.88;;;34.10;44.40;;;;;;5075337;28;20426;-71
2021/04/04 04:01:32;;;;;;;7.40;5.20;;;34.10;44.90;;;;;;5082314;28;20094;-70
2021/04/04 04:04:01;;;;;;;2.20;2.00;;;34.10;43.90;;;;;;5074139;28;20428;-70
2021/04/04 04:06:33;;;;;;;13.38;12.10;;;34.40;42.70;;;;;;5079636;28;20403;-71
2021/04/04 04:09:17;;;;;;;4.38;2.30;;;34.60;42.60;;;;;;5075830;28;20413;-71
2021/04/04 04:11:50;;;;;;;3.17;1.23;;;35.00;42.60;;;;;;5074907;28;20081;-70
2021/04/04 04:14:23;;;;;;;1.35;1.00;;;35.10;42.60;;;;;;5063907;28;20108;-70
2021/04/04 04:16:51;;;;;;;3.05;2.72;;;35.30;41.60;;;;;;5077505;28;20081;-69
2021/04/04 04:19:19;;;;;;;9.00;5.93;;;35.00;41.70;;;;;;5069050;28;20033;-68
2021/04/04 04:21:47;;;;;;;5.13;1.67;;;34.50;43.20;;;;;;5078410;28;20021;-69
2021/04/04 04:24:16;;;;;;;8.07;6.72;;;34.60;43.70;;;;;;5074947;28;20039;-70
2021/04/04 04:26:49;;;;;;;6.25;2.67;;;34.60;43.60;;;;;;5071377;28;20119;-70
2021/04/04 04:29:18;;;;;;;48.25;43.15;;;34.60;43.60;;;;;;5069946;28;20059;-70
2021/04/04 04:31:48;;;;;;;99.03;89.30;;;34.70;42.50;;;;;;5070398;28;20501;-70
2021/04/04 04:34:16;;;;;;;13.15;9.00;;;34.30;42.40;;;;;;5078302;28;20109;-70
2021/04/04 04:36:45;;;;;;;2.92;2.03;;;34.20;43.00;;;;;;5074567;28;20037;-70
2021/04/04 04:39:13;;;;;;;5.25;4.15;;;34.50;42.10;;;;;;5065364;28;20025;-69
2021/04/04 04:41:49;;;;;;;1.73;1.05;;;34.40;41.90;;;;;;5071005;28;20457;-69
2021/04/04 04:44:21;;;;;;;22.17;19.27;;;34.40;41.50;;;;;;5069461;28;20041;-70
2021/04/04 04:46:49;;;;;;;4.68;2.83;;;34.50;41.30;;;;;;5066395;28;20020;-70
2021/04/04 04:49:18;;;;;;;49.17;44.08;;;34.60;41.00;;;;;;5076987;28;20053;-69
2021/04/04 04:51:51;;;;;;;10.98;7.97;;;34.70;40.20;;;;;;5083711;28;20074;-68
2021/04/04 04:54:19;;;;;;;4.60;1.55;;;34.80;41.20;;;;;;5070256;28;20025;-69
2021/04/04 04:56:49;;;;;;;2.00;1.00;;;34.90;41.40;;;;;;5080142;28;20028;-70
2021/04/04 04:59:17;;;;;;;2.75;0.85;;;34.90;40.80;;;;;;5076289;28;21935;-68
2021/04/04 05:01:46;;;;;;;1.58;0.98;;;35.10;39.80;;;;;;5087273;28;20379;-71
2021/04/04 05:04:14;;;;;;;12.93;11.65;;;35.00;40.60;;;;;;5077903;28;20040;-69
2021/04/04 05:06:46;;;;;;;15.93;14.30;;;34.80;39.50;;;;;;5082570;28;20048;-70
2021/04/04 05:09:14;;;;;;;3.35;1.60;;;34.60;38.80;;;;;;5074787;28;20070;-69
2021/04/04 05:11:47;;;;;;;13.55;11.13;;;34.40;39.60;;;;;;5082794;28;20031;-69
2021/04/04 05:14:15;;;;;;;2.05;1.75;;;34.50;40.00;;;;;;5081085;28;20498;-70
2021/04/04 05:16:43;;;;;;;2.95;2.67;;;34.30;40.10;;;;;;5083084;28;20024;-72
2021/04/04 05:19:12;;;;;;;16.10;14.40;;;34.30;39.80;;;;;;5076772;28;20044;-68
2021/04/04 05:21:42;;;;;;;14.38;12.93;;;34.10;40.10;;;;;;5079593;28;20066;-68
2021/04/04 05:24:12;;;;;;;11.43;10.25;;;33.70;39.80;;;;;;5072860;28;20064;-69
2021/04/04 05:26:45;;;;;;;2.38;1.52;;;33.40;39.90;;;;;;5080281;28;20029;-70
2021/04/04 05:29:15;;;;;;;1.08;0.95;;;33.20;39.50;;;;;;5077116;28;20032;-70
2021/04/04 05:31:50;;;;;;;1.15;0.70;;;33.10;39.80;;;;;;5078307;28;20085;-68
2021/04/04 05:34:20;;;;;;;1.70;0.70;;;33.20;39.30;;;;;;5079169;28;20881;-71
2021/04/04 05:36:52;;;;;;;2.47;0.80;;;33.40;40.40;;;;;;5083929;28;20379;-70
2021/04/04 05:39:22;;;;;;;3.63;1.05;;;33.40;39.50;;;;;;5076380;28;20409;-70
2021/04/04 05:41:52;;;;;;;1.20;0.73;;;33.40;40.30;;;;;;5076999;28;20043;-70
2021/04/04 05:44:33;;;;;;;1.48;0.60;;;33.30;38.80;;;;;;5080762;28;20024;-70
2021/04/04 05:47:08;;;;;;;3.47;0.80;;;32.90;39.70;;;;;;5080696;28;20074;-69
2021/04/04 05:50:09;;;;;;;1.83;0.52;;;32.60;40.40;;;;;;5075516;28;20115;-69
2021/04/04 05:52:39;;;;;;;1.50;0.70;;;32.40;39.90;;;;;;5081539;28;20056;-71
2021/04/04 05:55:13;;;;;;;2.70;0.55;;;32.40;41.20;;;;;;5074330;28;20032;-70
2021/04/04 05:57:43;;;;;;;2.70;0.57;;;32.10;40.10;;;;;;5068893;28;20039;-70
2021/04/04 06:00:12;;;;;;;0.63;0.47;;;31.90;40.20;;;;;;5074526;28;20078;-70
2021/04/04 06:03:13;;;;;;;1.10;0.65;;;31.80;40.00;;;;;;5075173;28;20032;-71
2021/04/04 06:06:09;;;;;;;0.93;0.70;;;31.70;40.20;;;;;;5072124;28;20028;-71
2021/04/04 06:09:06;;;;;;;1.75;0.88;;;31.90;39.30;;;;;;5080703;28;20149;-70
2021/04/04 06:11:48;;;;;;;1.15;0.80;;;31.80;39.10;;;;;;5075384;28;20407;-69
2021/04/04 06:14:15;;;;;;;1.83;1.02;;;31.50;39.30;;;;;;5075676;28;20067;-69
2021/04/04 06:16:53;;;;;;;2.45;1.67;;;31.20;39.30;;;;;;5082825;28;20020;-70
2021/04/04 06:20:01;;;;;;;1.30;1.00;;;31.20;39.80;;;;;;5072369;28;20115;-69
2021/04/04 06:23:13;;;;;;;1.92;0.80;;;31.20;40.40;;;;;;5054100;28;20036;-70
2021/04/04 06:26:04;;;;;;;2.13;0.80;;;31.00;40.90;;;;;;5016155;28;20428;-70
2021/04/04 06:28:46;;;;;;;0.95;0.52;;;31.10;42.10;;;;;;5016274;28;20025;-71
2021/04/04 06:31:34;;;;;;;0.63;0.63;;;31.10;43.30;;;;;;5066253;28;20060;-70
2021/04/04 06:34:22;;;;;;;2.45;0.57;;;31.10;44.60;;;;;;5074995;28;20112;-70
2021/04/04 06:37:15;;;;;;;1.13;0.60;;;31.00;44.10;;;;;;5076020;28;20024;-70
2021/04/04 06:40:07;;;;;;;1.17;0.70;;;31.00;44.70;;;;;;5072673;28;20025;-69
2021/04/04 06:42:53;;;;;;;1.00;0.40;;;30.90;44.30;;;;;;5079516;28;20040;-70
2021/04/04 06:45:23;;;;;;;2.15;0.70;;;30.60;44.60;;;;;;5073882;28;20104;-70
2021/04/04 06:48:31;;;;;;;0.57;0.50;;;30.50;45.20;;;;;;5076678;28;20047;-71
2021/04/04 06:51:24;;;;;;;2.55;0.43;;;30.40;45.50;;;;;;5077361;28;20089;-69
2021/04/04 06:54:01;;;;;;;0.47;0.30;;;30.20;45.80;;;;;;5072893;28;20528;-70
2021/04/04 06:56:42;;;;;;;1.30;0.43;;;30.00;45.80;;;;;;5072749;28;20467;-70
2021/04/04 06:59:19;;;;;;;1.33;0.30;;;29.90;47.60;;;;;;5075611;28;20100;-71
2021/04/04 07:02:21;;;;;;;2.63;0.40;;;29.70;48.30;;;;;;5078581;28;20025;-71
2021/04/04 07:04:56;;;;;;;2.05;0.50;;;29.50;48.90;;;;;;5072624;28;20040;-72
2021/04/04 07:07:39;;;;;;;1.90;1.08;;;29.30;49.70;;;;;;5080620;28;20508;-70
2021/04/04 07:10:20;;;;;;;1.50;0.50;;;29.20;50.80;;;;;;5073577;28;20032;-69
2021/04/04 07:12:54;;;;;;;2.78;0.50;;;29.10;51.50;;;;;;5078765;28;20123;-69
2021/04/04 07:16:19;;;;;;;0.50;0.45;;;29.00;51.90;;;;;;5074019;28;20035;-70
2021/04/04 07:19:19;;;;;;;1.55;0.40;;;28.90;52.20;;;;;;5012784;28;20057;-70
2021/04/04 07:21:56;;;;;;;0.70;0.50;;;28.70;52.90;;;;;;5007622;28;20033;-69
2021/04/04 07:24:56;;;;;;;2.63;0.93;;;28.50;53.30;;;;;;5058706;28;20396;-70
2021/04/04 07:27:32;;;;;;;1.67;0.50;;;28.40;54.00;;;;;;5078491;28;20040;-70
2021/04/04 07:30:31;;;;;;;1.10;0.45;;;28.20;54.30;;;;;;5077594;28;20048;-70
2021/04/04 07:33:24;;;;;;;0.80;0.40;;;28.10;55.00;;;;;;5074493;28;20040;-71
2021/04/04 07:36:10;;;;;;;1.40;0.50;;;27.90;56.20;;;;;;5068632;28;20382;-70
2021/04/04 07:39:09;;;;;;;0.88;0.40;;;27.70;56.10;;;;;;5079611;28;20038;-70
2021/04/04 07:42:07;;;;;;;2.85;0.70;;;27.50;56.90;;;;;;5079651;28;20421;-71
2021/04/04 07:44:47;;;;;;;1.45;0.70;;;27.30;56.60;;;;;;5074598;28;20028;-69
2021/04/04 07:47:28;;;;;;;1.05;0.65;;;27.20;57.30;;;;;;5072271;28;20043;-69
2021/04/04 07:50:10;;;;;;;2.45;1.33;;;27.10;56.70;;;;;;5067057;28;20036;-71
2021/04/04 07:53:08;;;;;;;2.45;0.88;;;27.00;57.60;;;;;;5081701;28;20036;-71
2021/04/04 07:55:51;;;;;;;1.00;0.80;;;27.00;59.20;;;;;;5076700;28;20055;-71
2021/04/04 07:58:28;;;;;;;1.60;0.70;;;26.80;58.40;;;;;;5073577;28;20284;-70
2021/04/04 08:01:07;;;;;;;1.77;0.52;;;26.70;58.10;;;;;;5074534;28;20016;-72
2021/04/04 08:03:53;;;;;;;1.30;0.65;;;26.60;57.80;;;;;;5080305;28;20024;-72
2021/04/04 08:06:30;;;;;;;0.90;0.57;;;26.60;59.10;;;;;;5069956;28;20035;-69
2021/04/04 08:09:24;;;;;;;2.25;0.65;;;26.50;58.80;;;;;;5073859;28;20024;-70
2021/04/04 08:12:02;;;;;;;1.70;0.77;;;26.40;58.70;;;;;;5070720;28;20040;-71
2021/04/04 08:14:48;;;;;;;1.45;0.60;;;26.30;60.90;;;;;;5074975;28;20029;-70
2021/04/04 08:17:15;;;;;;;2.72;0.82;;;26.20;61.70;;;;;;5074320;28;20601;-70
2021/04/04 08:19:46;;;;;;;4.47;1.38;;;26.10;60.30;;;;;;5067482;28;20189;-70
2021/04/04 08:22:22;;;;;;;2.80;1.27;;;26.10;60.00;;;;;;5069017;28;20058;-69
2021/04/04 08:25:05;;;;;;;2.85;1.75;;;26.10;62.30;;;;;;5063969;28;20024;-73
2021/04/04 08:27:43;;;;;;;1.63;1.35;;;26.00;63.00;;;;;;5070955;28;20055;-70
2021/04/04 08:30:18;;;;;;;3.78;1.15;;;26.00;62.60;;;;;;5077755;28;20028;-72
2021/04/04 08:32:45;;;;;;;;;;;25.90;64.70;;;;;;5079843;28;20098;-70
2021/04/04 08:35:26;;;;;;;1.92;1.30;;;25.90;65.00;;;;;;5079974;28;19937;-69
2021/04/04 08:38:18;;;;;;;3.30;1.45;;;25.90;65.50;;;;;;5076128;28;20024;-72
2021/04/04 08:40:48;;;;;;;2.22;1.67;;;25.80;64.20;;;;;;5077135;28;20048;-69
2021/04/04 08:43:16;;;;;;;3.53;1.48;;;25.90;64.00;;;;;;5081059;28;20060;-71
2021/04/04 08:45:56;;;;;;;2.78;1.27;;;25.80;64.10;;;;;;5078104;28;20481;-70
2021/04/04 08:48:26;;;;;;;2.83;1.30;;;25.70;64.40;;;;;;5072978;28;20101;-71
2021/04/04 08:50:57;;;;;;;1.98;1.05;;;25.80;64.90;;;;;;5077337;28;20060;-70
2021/04/04 08:53:46;;;;;;;2.30;2.03;;;25.70;65.10;;;;;;5077837;28;20028;-70
2021/04/04 08:56:17;;;;;;;4.75;2.10;;;25.70;65.50;;;;;;5077395;28;20028;-70
2021/04/04 08:58:51;;;;;;;5.47;3.63;;;25.60;67.20;;;;;;5071937;28;20031;-71
2021/04/04 09:01:45;;;;;;;4.65;3.15;;;25.60;67.40;;;;;;5083694;28;20216;-70
2021/04/04 09:04:13;;;;;;;4.35;2.80;;;25.50;67.60;;;;;;5073243;28;20051;-70
2021/04/04 09:06:46;;;;;;;4.50;3.25;;;25.50;68.10;;;;;;5079330;28;20031;-71
2021/04/04 09:09:31;;;;;;;3.25;2.38;;;25.50;68.10;;;;;;5078217;28;20040;-70
2021/04/04 09:12:02;;;;;;;4.95;2.30;;;25.50;68.50;;;;;;5082525;28;20032;-71
2021/04/04 09:14:35;;;;;;;5.35;3.42;;;25.50;69.00;;;;;;5074583;28;20051;-70
2021/04/04 09:17:08;;;;;;;6.65;3.88;;;25.40;71.10;;;;;;5080412;28;20032;-71
2021/04/04 09:19:45;;;;;;;5.50;4.47;;;25.30;73.50;;;;;;5071272;28;20032;-70
2021/04/04 09:22:21;;;;;;;4.15;3.00;;;25.30;74.00;;;;;;5077191;28;20024;-70
2021/04/04 09:24:50;;;;;;;;;;;25.20;74.70;;;;;;5070912;28;20040;-71
2021/04/04 09:27:20;;;;;;;6.63;3.90;;;25.20;75.20;;;;;;5077867;28;19915;-73
2021/04/04 09:29:59;;;;;;;7.57;3.30;;;25.10;77.00;;;;;;5072501;28;20020;-69
2021/04/04 09:32:38;;;;;;;6.47;3.75;;;25.00;77.30;;;;;;5067721;28;20092;-69
2021/04/04 09:35:13;;;;;;;5.13;3.30;;;25.00;77.90;;;;;;5063862;28;20465;-71
2021/04/04 09:37:42;;;;;;;4.90;2.70;;;24.90;78.50;;;;;;5067469;28;20737;-70
2021/04/04 09:40:10;;;;;;;4.72;2.53;;;24.90;79.00;;;;;;5064850;28;20040;-70
2021/04/04 09:42:39;;;;;;;2.75;2.10;;;24.80;79.60;;;;;;5072716;28;20116;-70
2021/04/04 09:45:19;;;;;;;5.97;2.58;;;24.70;80.30;;;;;;5060688;28;20036;-70
2021/04/04 09:47:49;;;;;;;4.07;2.58;;;24.70;80.50;;;;;;5068280;28;20108;-70
2021/04/04 09:50:24;;;;;;;4.10;2.40;;;24.60;81.20;;;;;;5072605;28;20063;-68
2021/04/04 09:52:53;;;;;;;5.95;2.70;;;24.60;82.50;;;;;;5070067;28;20131;-68
2021/04/04 09:55:22;;;;;;;4.25;2.58;;;24.60;82.60;;;;;;5071698;28;20032;-69
2021/04/04 09:57:55;;;;;;;3.58;2.78;;;24.50;82.90;;;;;;5079542;28;20020;-68
2021/04/04 10:00:31;;;;;;;5.72;2.55;;;24.40;83.40;;;;;;5078124;28;20089;-70
2021/04/04 10:03:18;;;;;;;4.80;2.55;;;24.40;84.10;;;;;;5075070;28;20035;-70
2021/04/04 10:05:48;;;;;;;4.30;2.13;;;24.30;84.50;;;;;;5076788;28;20040;-69
2021/04/04 10:08:19;;;;;;;2.78;1.77;;;24.30;84.70;;;;;;5073544;28;20838;-69
2021/04/04 10:10:49;;;;;;;3.33;1.83;;;24.30;85.00;;;;;;5070894;28;20043;-69
2021/04/04 10:13:18;;;;;;;6.68;2.00;;;24.30;85.30;;;;;;5080119;28;20126;-70
2021/04/04 10:15:50;;;;;;;4.95;1.95;;;24.20;85.50;;;;;;5074435;28;20033;-70
2021/04/04 10:18:19;;;;;;;3.88;1.90;;;24.30;85.60;;;;;;5070919;28;20431;-69
2021/04/04 10:20:55;;;;;;;7.38;2.50;;;24.20;85.80;;;;;;5065893;28;20028;-70
2021/04/04 10:23:33;;;;;;;5.70;3.00;;;24.30;85.80;;;;;;5078264;28;20096;-71
2021/04/04 10:26:09;;;;;;;6.15;3.38;;;24.20;86.00;;;;;;5071625;28;20085;-70
2021/04/04 10:28:43;;;;;;;4.70;2.63;;;24.20;86.20;;;;;;5072656;28;20459;-70
2021/04/04 10:31:11;;;;;;;2.83;2.20;;;24.20;86.40;;;;;;5053579;28;20151;-71
2021/04/04 10:33:39;;;;;;;3.28;2.53;;;24.10;86.40;;;;;;5071104;28;20029;-70
2021/04/04 10:36:15;;;;;;;3.35;2.25;;;24.10;86.70;;;;;;5062783;28;20050;-68
2021/04/04 10:38:44;;;;;;;4.82;2.47;;;24.00;86.60;;;;;;5056382;28;20048;-70
2021/04/04 10:41:24;;;;;;;7.85;2.67;;;24.00;87.00;;;;;;5061279;28;20031;-70
2021/04/04 10:43:52;;;;;;;2.78;2.08;;;24.00;87.00;;;;;;5058738;28;20024;-70
2021/04/04 10:46:23;;;;;;;3.42;2.05;;;24.10;86.80;;;;;;5061023;28;20039;-70
2021/04/04 10:48:51;;;;;;;3.47;1.83;;;24.00;87.10;;;;;;5069318;28;20044;-71
2021/04/04 10:51:20;;;;;;;3.85;2.20;;;24.00;87.20;;;;;;5063340;28;20544;-71
2021/04/04 10:53:49;;;;;;;3.70;1.75;;;23.90;87.30;;;;;;5044853;28;20024;-69
2021/04/04 10:56:17;;;;;;;4.88;2.95;;;23.90;87.30;;;;;;5045997;28;20040;-69
2021/04/04 10:58:46;;;;;;;2.97;1.90;;;23.90;87.50;;;;;;5043165;28;20090;-69
2021/04/04 11:01:14;;;;;;;4.38;2.60;;;23.90;87.30;;;;;;5051812;28;20047;-70
2021/04/04 11:03:42;;;;;;;3.35;2.13;;;23.90;86.40;;;;;;5066144;28;20616;-72
2021/04/04 11:06:11;;;;;;;2.95;2.08;;;23.80;86.50;;;;;;5068681;28;20036;-69
2021/04/04 11:08:43;;;;;;;3.28;2.08;;;23.80;86.90;;;;;;5065740;28;20402;-70
2021/04/04 11:11:14;;;;;;;4.22;1.90;;;23.80;87.20;;;;;;5065908;28;20143;-69
2021/04/04 11:13:45;;;;;;;5.13;2.10;;;23.80;87.20;;;;;;5073067;28;20024;-71
2021/04/04 11:16:13;;;;;;;3.22;1.70;;;23.70;87.20;;;;;;5070797;28;20040;-69
2021/04/04 11:18:41;;;;;;;3.35;1.95;;;23.70;87.00;;;;;;5068165;28;20036;-70
2021/04/04 11:21:20;;;;;;;5.13;1.92;;;23.70;86.60;;;;;;5069569;28;20028;-69
2021/04/04 11:23:48;;;;;;;2.53;2.05;;;23.70;86.60;;;;;;5069480;28;20067;-68
2021/04/04 11:26:34;;;;;;;4.03;2.00;;;23.70;86.70;;;;;;5071715;28;20036;-72
2021/04/04 11:29:09;;;;;;;3.40;1.70;;;23.70;86.60;;;;;;5061236;28;20032;-71
2021/04/04 11:31:41;;;;;;;3.30;2.00;;;23.70;86.70;;;;;;5063801;28;20077;-74
2021/04/04 11:34:32;;;;;;;3.05;1.90;;;23.60;86.80;;;;;;5064620;28;20060;-69
2021/04/04 11:37:23;;;;;;;5.50;2.28;;;23.60;86.50;;;;;;5069489;28;20020;-70
2021/04/04 11:40:22;;;;;;;3.80;1.65;;;23.50;86.50;;;;;;5070116;28;20078;-75
2021/04/04 11:42:51;;;;;;;2.33;1.50;;;23.50;87.00;;;;;;5071837;28;20021;-73
2021/04/04 11:45:37;;;;;;;3.80;1.77;;;23.40;87.10;;;;;;5069544;28;20082;-75
2021/04/04 11:48:28;;;;;;;3.28;2.00;;;23.40;87.40;;;;;;5059737;28;20393;-74
2021/04/04 11:51:16;;;;;;;2.42;2.00;;;23.40;87.20;;;;;;5068821;28;20047;-75
2021/04/04 11:53:47;;;;;;;3.70;2.00;;;23.30;87.20;;;;;;5059405;28;20032;-71
2021/04/04 11:56:42;;;;;;;5.68;2.97;;;23.30;87.40;;;;;;5066224;28;20025;-70
2021/04/04 11:59:10;;;;;;;6.03;3.25;;;23.30;87.50;;;;;;5062889;28;20123;-70
2021/04/04 12:01:38;;;;;;;4.20;2.63;;;23.30;87.50;;;;;;5050831;28;20612;-73
2021/04/04 12:04:33;;;;;;;4.45;3.45;;;23.20;87.60;;;;;;5068170;28;20043;-70
2021/04/04 12:07:14;;;;;;;4.10;2.88;;;23.20;87.70;;;;;;5059436;28;20056;-75
2021/04/04 12:09:44;;;;;;;4.35;2.60;;;23.10;87.80;;;;;;5061583;28;20074;-74
2021/04/04 12:12:13;;;;;;;2.88;2.13;;;23.10;87.80;;;;;;5047294;28;20491;-70
2021/04/04 12:15:06;;;;;;;3.60;2.35;;;23.00;87.80;;;;;;5061127;28;20036;-70
2021/04/04 12:17:34;;;;;;;5.00;2.47;;;23.00;88.00;;;;;;5051492;28;20048;-72
2021/04/04 12:20:02;;;;;;;6.18;2.50;;;22.70;88.70;;;;;;5061812;28;20028;-70
2021/04/04 12:22:45;;;;;;;4.20;2.38;;;22.70;89.30;;;;;;5057175;28;20053;-73
2021/04/04 12:25:19;;;;;;;3.58;2.50;;;22.80;89.50;;;;;;5071103;28;20037;-69
2021/04/04 12:27:49;;;;;;;3.20;2.67;;;22.80;89.40;;;;;;5074159;28;20090;-74
2021/04/04 12:30:26;;;;;;;3.42;2.72;;;22.80;89.30;;;;;;5063470;28;20036;-73
2021/04/04 12:33:36;;;;;;;5.93;3.45;;;22.80;89.50;;;;;;5066243;28;20028;-73
2021/04/04 12:36:05;;;;;;;6.10;3.58;;;22.80;89.30;;;;;;5042649;28;20033;-73
2021/04/04 12:38:36;;;;;;;3.78;2.95;;;22.70;89.20;;;;;;5059652;28;20088;-68
2021/04/04 12:41:04;;;;;;;4.40;2.70;;;22.70;89.70;;;;;;5063013;28;20740;-75
2021/04/04 12:43:31;;;;;;;4.00;3.17;;;22.70;90.00;;;;;;5045967;28;20116;-73
2021/04/04 12:45:58;;;;;;;6.90;3.30;;;22.70;89.30;;;;;;5058217;28;20127;-72
2021/04/04 12:48:26;;;;;;;7.68;3.38;;;22.70;89.50;;;;;;5058788;28;20044;-75
2021/04/04 12:51:01;;;;;;;5.60;2.85;;;22.70;89.80;;;;;;5067726;28;20031;-71
2021/04/04 12:53:30;;;;;;;6.80;3.95;;;22.60;89.60;;;;;;5064195;28;20025;-69
2021/04/04 12:55:58;;;;;;;6.38;3.90;;;22.50;90.10;;;;;;5043937;28;20034;-70
2021/04/04 12:58:36;;;;;;;3.83;3.40;;;22.40;90.50;;;;;;5046803;28;20024;-69
2021/04/04 13:01:05;;;;;;;4.68;3.53;;;22.40;90.70;;;;;;5044471;28;20032;-68
2021/04/04 13:03:34;;;;;;;3.72;3.40;;;22.30;91.10;;;;;;5045114;28;20157;-70
2021/04/04 13:06:03;;;;;;;8.07;3.80;;;22.30;91.10;;;;;;5046601;28;20029;-69
2021/04/04 13:08:33;;;;;;;4.13;2.70;;;22.30;91.00;;;;;;5043707;28;20032;-69
2021/04/04 13:11:06;;;;;;;4.25;3.10;;;22.30;91.10;;;;;;5044723;28;20511;-69
2021/04/04 13:13:36;;;;;;;3.60;2.50;;;22.30;91.00;;;;;;5056556;28;20043;-69
2021/04/04 13:16:08;;;;;;;3.17;2.67;;;22.30;91.00;;;;;;5077861;28;20028;-70
2021/04/04 13:18:37;;;;;;;4.03;2.67;;;22.30;90.90;;;;;;5066580;28;20032;-70
2021/04/04 13:21:08;;;;;;;5.97;2.90;;;22.30;91.00;;;;;;5079429;28;20023;-68
2021/04/04 13:23:37;;;;;;;4.75;2.70;;;22.20;91.20;;;;;;5075265;28;20029;-69
2021/04/04 13:26:11;;;;;;;4.40;2.40;;;22.10;91.30;;;;;;5079352;28;20103;-70